WXM80 ListenWXM80 Stop

You find our weather info also at:

UK Metoffice

WeatherCloud

Weather Underground

Northeastern Weather Network

AWEKAS

Citizen Weather Observer Program (CWOP)

HAMweather, WeatherForYou, PWS Weather


Weather Underground History page Text

Daily Summary for February 8, 2017 Units:  Both    English   Metric
« Previous Day
Next Day »
Daily Weekly Monthly Yearly Custom
  High: Low: Average:
Temperature: 60.1 °F /  15.6 °C 37.7 °F /  3.2 °C 45.1 °F /  7.3 °C
Dew Point: 52.5 °F /  11.4 °C 34.9 °F /  1.6 °C 39.9 °F /  4.4 °C
Humidity: 99 % 57 % 84 %
Wind Speed: 7.1 mph /  11.4 km/h - 1.8 mph /  2.9 km/h
Wind Gust: 12.0 mph /  19.3 km/h - -
Wind:- - SSW
Pressure: 29.70 in /  1005.6 hPa 29.50 in /  998.9 hPa -
Precipitation: 0.00 in /  0 mm    
Historical Graphs
 
 
Tabular Data for February 8, 2017
Time Temperature Dew Point Pressure Wind Wind Speed Wind Gust Humidity Rainfall Rate (Hourly)
00:03 38.8 °F /  3.8 °C 38.3 °F /  3.5 °C 29.59 in /  1001.9 hPa SE 1.1 mph /  1.8 km/h 3.5 mph /  5.6 km/h 98 % 0.00 in /  0 mm
00:08 38.8 °F /  3.8 °C 38.3 °F /  3.5 °C 29.58 in /  1001.6 hPa ENE 3.9 mph /  6.3 km/h 5.8 mph /  9.3 km/h 98 % 0.00 in /  0 mm
00:13 38.8 °F /  3.8 °C 38.3 °F /  3.5 °C 29.58 in /  1001.6 hPa ENE 2.4 mph /  3.9 km/h 3.5 mph /  5.6 km/h 98 % 0.00 in /  0 mm
00:18 38.8 °F /  3.8 °C 38.3 °F /  3.5 °C 29.57 in /  1001.2 hPa ENE 2.9 mph /  4.7 km/h 3.5 mph /  5.6 km/h 98 % 0.00 in /  0 mm
00:23 38.8 °F /  3.8 °C 38.3 °F /  3.5 °C 29.57 in /  1001.2 hPa East 2.3 mph /  3.7 km/h 3.5 mph /  5.6 km/h 98 % 0.00 in /  0 mm
00:28 38.7 °F /  3.7 °C 38.2 °F /  3.4 °C 29.56 in /  1000.9 hPa NE 2.4 mph /  3.9 km/h 3.5 mph /  5.6 km/h 98 % 0.00 in /  0 mm
00:33 38.7 °F /  3.7 °C 38.2 °F /  3.4 °C 29.56 in /  1000.9 hPa ENE 2.9 mph /  4.7 km/h 3.5 mph /  5.6 km/h 98 % 0.00 in /  0 mm
00:38 38.7 °F /  3.7 °C 38.2 °F /  3.4 °C 29.56 in /  1000.9 hPa ENE 2.8 mph /  4.5 km/h 3.5 mph /  5.6 km/h 98 % 0.00 in /  0 mm
00:43 38.7 °F /  3.7 °C 38.2 °F /  3.4 °C 29.56 in /  1000.9 hPa NE 1.6 mph /  2.6 km/h 1.6 mph /  2.6 km/h 98 % 0.00 in /  0 mm
00:48 38.6 °F /  3.7 °C 38.1 °F /  3.4 °C 29.55 in /  1000.6 hPa ENE 1.0 mph /  1.6 km/h 4.0 mph /  6.4 km/h 98 % 0.00 in /  0 mm
00:53 38.7 °F /  3.7 °C 38.1 °F /  3.4 °C 29.55 in /  1000.6 hPa ENE 2.0 mph /  3.2 km/h 3.0 mph /  4.8 km/h 98 % 0.00 in /  0 mm
00:58 38.7 °F /  3.7 °C 38.2 °F /  3.4 °C 29.56 in /  1000.9 hPa ENE 0.5 mph /  0.8 km/h 3.5 mph /  5.6 km/h 98 % 0.00 in /  0 mm
01:04 38.6 °F /  3.7 °C 38.1 °F /  3.4 °C 29.55 in /  1000.6 hPa ENE 0.2 mph /  0.3 km/h 1.2 mph /  1.9 km/h 98 % 0.00 in /  0 mm
01:09 38.6 °F /  3.7 °C 38.1 °F /  3.4 °C 29.55 in /  1000.6 hPa ENE 0.9 mph /  1.4 km/h 2.3 mph /  3.7 km/h 98 % 0.00 in /  0 mm
01:14 38.6 °F /  3.7 °C 38.1 °F /  3.4 °C 29.55 in /  1000.6 hPa Calm     98 % 0.00 in /  0 mm
01:19 38.6 °F /  3.7 °C 38.1 °F /  3.4 °C 29.55 in /  1000.6 hPa Calm     98 % 0.00 in /  0 mm
01:24 38.5 °F /  3.6 °C 38.0 °F /  3.3 °C 29.55 in /  1000.6 hPa ENE 0.1 mph /  0.2 km/h 2.0 mph /  3.2 km/h 98 % 0.00 in /  0 mm
01:29 38.5 °F /  3.6 °C 38.0 °F /  3.3 °C 29.54 in /  1000.2 hPa Calm     98 % 0.00 in /  0 mm
01:34 38.4 °F /  3.6 °C 37.9 °F /  3.3 °C 29.54 in /  1000.2 hPa Calm   1.2 mph /  1.9 km/h 98 % 0.00 in /  0 mm
01:39 38.3 °F /  3.5 °C 37.8 °F /  3.2 °C 29.54 in /  1000.2 hPa Calm     98 % 0.00 in /  0 mm
01:44 38.3 °F /  3.5 °C 37.8 °F /  3.2 °C 29.53 in /  999.9 hPa Calm     98 % 0.00 in /  0 mm
01:49 38.3 °F /  3.5 °C 37.8 °F /  3.2 °C 29.53 in /  999.9 hPa ENE 0.7 mph /  1.1 km/h 2.3 mph /  3.7 km/h 98 % 0.00 in /  0 mm
01:54 38.3 °F /  3.5 °C 37.8 °F /  3.2 °C 29.54 in /  1000.2 hPa Calm   1.2 mph /  1.9 km/h 98 % 0.00 in /  0 mm
01:59 38.3 °F /  3.5 °C 37.8 °F /  3.2 °C 29.53 in /  999.9 hPa Calm   1.2 mph /  1.9 km/h 98 % 0.00 in /  0 mm
02:04 38.3 °F /  3.5 °C 37.8 °F /  3.2 °C 29.53 in /  999.9 hPa ENE 1.7 mph /  2.7 km/h 3.0 mph /  4.8 km/h 98 % 0.00 in /  0 mm
02:09 38.4 °F /  3.6 °C 37.9 °F /  3.3 °C 29.53 in /  999.9 hPa Calm   1.2 mph /  1.9 km/h 98 % 0.00 in /  0 mm
02:14 38.4 °F /  3.6 °C 37.9 °F /  3.3 °C 29.53 in /  999.9 hPa NNE 0.4 mph /  0.6 km/h 1.2 mph /  1.9 km/h 98 % 0.00 in /  0 mm
02:19 38.4 °F /  3.6 °C 37.9 °F /  3.3 °C 29.53 in /  999.9 hPa Calm     98 % 0.00 in /  0 mm
02:24 38.5 °F /  3.6 °C 38.0 °F /  3.3 °C 29.53 in /  999.9 hPa Calm     98 % 0.00 in /  0 mm
02:29 38.6 °F /  3.7 °C 38.1 °F /  3.4 °C 29.53 in /  999.9 hPa Calm     98 % 0.00 in /  0 mm
02:34 38.6 °F /  3.7 °C 38.1 °F /  3.4 °C 29.53 in /  999.9 hPa Calm     98 % 0.00 in /  0 mm
02:39 38.6 °F /  3.7 °C 38.1 °F /  3.4 °C 29.53 in /  999.9 hPa Calm     98 % 0.00 in /  0 mm
02:44 38.6 °F /  3.7 °C 38.1 °F /  3.4 °C 29.53 in /  999.9 hPa Calm     98 % 0.00 in /  0 mm
02:49 38.6 °F /  3.7 °C 38.1 °F /  3.4 °C 29.53 in /  999.9 hPa Calm     98 % 0.00 in /  0 mm
02:55 38.6 °F /  3.7 °C 38.1 °F /  3.4 °C 29.52 in /  999.5 hPa Calm     98 % 0.00 in /  0 mm
03:00 38.7 °F /  3.7 °C 38.2 °F /  3.4 °C 29.52 in /  999.5 hPa Calm     98 % 0.00 in /  0 mm
03:05 38.7 °F /  3.7 °C 38.2 °F /  3.4 °C 29.53 in /  999.9 hPa Calm     98 % 0.00 in /  0 mm
03:10 38.7 °F /  3.7 °C 38.2 °F /  3.4 °C 29.52 in /  999.5 hPa Calm     98 % 0.00 in /  0 mm
03:15 38.7 °F /  3.7 °C 38.2 °F /  3.4 °C 29.52 in /  999.5 hPa NNE 0.2 mph /  0.3 km/h 1.2 mph /  1.9 km/h 98 % 0.00 in /  0 mm
03:20 38.8 °F /  3.8 °C 38.3 °F /  3.5 °C 29.52 in /  999.5 hPa Calm     98 % 0.00 in /  0 mm
03:25 38.8 °F /  3.8 °C 38.3 °F /  3.5 °C 29.52 in /  999.5 hPa Calm     98 % 0.00 in /  0 mm
03:30 38.8 °F /  3.8 °C 38.3 °F /  3.5 °C 29.52 in /  999.5 hPa Calm     98 % 0.00 in /  0 mm
03:35 38.8 °F /  3.8 °C 38.3 °F /  3.5 °C 29.52 in /  999.5 hPa Calm     98 % 0.00 in /  0 mm
03:40 38.9 °F /  3.8 °C 38.4 °F /  3.6 °C 29.52 in /  999.5 hPa Calm     98 % 0.00 in /  0 mm
03:45 38.9 °F /  3.8 °C 38.4 °F /  3.6 °C 29.52 in /  999.5 hPa NNE 0.9 mph /  1.4 km/h 2.3 mph /  3.7 km/h 98 % 0.00 in /  0 mm
03:50 38.9 °F /  3.8 °C 38.4 °F /  3.6 °C 29.53 in /  999.9 hPa Calm   1.2 mph /  1.9 km/h 98 % 0.00 in /  0 mm
03:55 38.9 °F /  3.8 °C 38.4 °F /  3.6 °C 29.52 in /  999.5 hPa Calm     98 % 0.00 in /  0 mm
04:00 38.9 °F /  3.8 °C 38.4 °F /  3.6 °C 29.53 in /  999.9 hPa Calm     98 % 0.00 in /  0 mm
04:05 39.0 °F /  3.9 °C 38.5 °F /  3.6 °C 29.52 in /  999.5 hPa Calm     98 % 0.00 in /  0 mm
04:10 39.0 °F /  3.9 °C 38.5 °F /  3.6 °C 29.51 in /  999.2 hPa Calm     98 % 0.00 in /  0 mm
04:15 39.0 °F /  3.9 °C 38.5 °F /  3.6 °C 29.51 in /  999.2 hPa NNE 0.3 mph /  0.5 km/h 1.0 mph /  1.6 km/h 98 % 0.00 in /  0 mm
04:20 39.0 °F /  3.9 °C 38.5 °F /  3.6 °C 29.51 in /  999.2 hPa Calm   1.2 mph /  1.9 km/h 98 % 0.00 in /  0 mm
04:25 39.0 °F /  3.9 °C 38.5 °F /  3.6 °C 29.52 in /  999.5 hPa Calm     98 % 0.00 in /  0 mm
04:30 39.0 °F /  3.9 °C 38.5 °F /  3.6 °C 29.51 in /  999.2 hPa Calm     98 % 0.00 in /  0 mm
04:35 38.9 °F /  3.8 °C 38.4 °F /  3.6 °C 29.51 in /  999.2 hPa Calm     98 % 0.00 in /  0 mm
04:40 38.9 °F /  3.8 °C 38.4 °F /  3.6 °C 29.51 in /  999.2 hPa NNE 0.1 mph /  0.2 km/h 1.2 mph /  1.9 km/h 98 % 0.00 in /  0 mm
04:45 38.9 °F /  3.8 °C 38.4 °F /  3.6 °C 29.51 in /  999.2 hPa NNE 0.4 mph /  0.6 km/h 1.2 mph /  1.9 km/h 98 % 0.00 in /  0 mm
04:50 38.9 °F /  3.8 °C 38.4 °F /  3.6 °C 29.51 in /  999.2 hPa Calm   1.2 mph /  1.9 km/h 98 % 0.00 in /  0 mm
04:55 38.8 °F /  3.8 °C 38.3 °F /  3.5 °C 29.51 in /  999.2 hPa Calm   1.0 mph /  1.6 km/h 98 % 0.00 in /  0 mm
05:01 38.8 °F /  3.8 °C 38.3 °F /  3.5 °C 29.51 in /  999.2 hPa Calm   1.2 mph /  1.9 km/h 98 % 0.00 in /  0 mm
05:06 38.7 °F /  3.7 °C 38.2 °F /  3.4 °C 29.51 in /  999.2 hPa Calm     98 % 0.00 in /  0 mm
05:11 38.7 °F /  3.7 °C 38.2 °F /  3.4 °C 29.50 in /  998.9 hPa Calm     98 % 0.00 in /  0 mm
05:16 38.6 °F /  3.7 °C 38.1 °F /  3.4 °C 29.50 in /  998.9 hPa Calm     98 % 0.00 in /  0 mm
05:21 38.6 °F /  3.7 °C 38.1 °F /  3.4 °C 29.50 in /  998.9 hPa Calm     98 % 0.00 in /  0 mm
05:26 38.6 °F /  3.7 °C 38.1 °F /  3.4 °C 29.50 in /  998.9 hPa Calm     98 % 0.00 in /  0 mm
05:31 38.5 °F /  3.6 °C 38.0 °F /  3.3 °C 29.50 in /  998.9 hPa Calm     98 % 0.00 in /  0 mm
05:36 38.5 °F /  3.6 °C 38.0 °F /  3.3 °C 29.50 in /  998.9 hPa Calm     98 % 0.00 in /  0 mm
05:41 38.4 °F /  3.6 °C 37.9 °F /  3.3 °C 29.51 in /  999.2 hPa Calm     98 % 0.00 in /  0 mm
05:46 38.4 °F /  3.6 °C 37.9 °F /  3.3 °C 29.51 in /  999.2 hPa Calm     98 % 0.00 in /  0 mm
05:51 38.4 °F /  3.6 °C 37.9 °F /  3.3 °C 29.51 in /  999.2 hPa NNE 0.1 mph /  0.2 km/h 1.2 mph /  1.9 km/h 98 % 0.00 in /  0 mm
05:56 38.4 °F /  3.6 °C 37.9 °F /  3.3 °C 29.51 in /  999.2 hPa Calm     98 % 0.00 in /  0 mm
06:01 38.4 °F /  3.6 °C 37.9 °F /  3.3 °C 29.51 in /  999.2 hPa NNE 0.3 mph /  0.5 km/h 1.0 mph /  1.6 km/h 98 % 0.00 in /  0 mm
06:06 38.4 °F /  3.6 °C 37.9 °F /  3.3 °C 29.52 in /  999.5 hPa Calm     98 % 0.00 in /  0 mm
06:11 38.4 °F /  3.6 °C 37.9 °F /  3.3 °C 29.51 in /  999.2 hPa Calm     98 % 0.00 in /  0 mm
06:16 38.4 °F /  3.6 °C 37.9 °F /  3.3 °C 29.52 in /  999.5 hPa Calm     98 % 0.00 in /  0 mm
06:21 38.4 °F /  3.6 °C 37.9 °F /  3.3 °C 29.52 in /  999.5 hPa Calm     98 % 0.00 in /  0 mm
06:26 38.3 °F /  3.5 °C 37.8 °F /  3.2 °C 29.53 in /  999.9 hPa Calm     98 % 0.00 in /  0 mm
06:27 38.3 °F /  3.5 °C 37.8 °F /  3.2 °C 29.53 in /  999.9 hPa Calm     98 % 0.00 in /  0 mm
06:32 38.3 °F /  3.5 °C 37.8 °F /  3.2 °C 29.53 in /  999.9 hPa Calm     98 % 0.00 in /  0 mm
06:37 38.3 °F /  3.5 °C 37.8 °F /  3.2 °C 29.54 in /  1000.2 hPa Calm     98 % 0.00 in /  0 mm
06:42 38.2 °F /  3.4 °C 37.7 °F /  3.2 °C 29.54 in /  1000.2 hPa Calm     98 % 0.00 in /  0 mm
06:47 38.2 °F /  3.4 °C 37.7 °F /  3.2 °C 29.54 in /  1000.2 hPa Calm     98 % 0.00 in /  0 mm
06:52 38.2 °F /  3.4 °C 37.7 °F /  3.2 °C 29.54 in /  1000.2 hPa Calm     98 % 0.00 in /  0 mm
06:57 38.1 °F /  3.4 °C 37.6 °F /  3.1 °C 29.54 in /  1000.2 hPa Calm     98 % 0.00 in /  0 mm
07:02 38.1 °F /  3.4 °C 37.6 °F /  3.1 °C 29.55 in /  1000.6 hPa Calm     98 % 0.00 in /  0 mm
07:07 38.0 °F /  3.3 °C 37.5 °F /  3.1 °C 29.55 in /  1000.6 hPa Calm     98 % 0.00 in /  0 mm
07:12 38.0 °F /  3.3 °C 37.5 °F /  3.1 °C 29.55 in /  1000.6 hPa Calm     98 % 0.00 in /  0 mm
07:17 37.9 °F /  3.3 °C 37.4 °F /  3 °C 29.55 in /  1000.6 hPa Calm     98 % 0.00 in /  0 mm
07:22 37.9 °F /  3.3 °C 37.4 °F /  3 °C 29.56 in /  1000.9 hPa Calm     98 % 0.00 in /  0 mm
07:27 37.8 °F /  3.2 °C 37.3 °F /  2.9 °C 29.56 in /  1000.9 hPa Calm     98 % 0.00 in /  0 mm
07:32 37.8 °F /  3.2 °C 37.3 °F /  2.9 °C 29.55 in /  1000.6 hPa Calm     98 % 0.00 in /  0 mm
07:37 37.8 °F /  3.2 °C 37.3 °F /  2.9 °C 29.56 in /  1000.9 hPa NNE 0.7 mph /  1.1 km/h 2.3 mph /  3.7 km/h 98 % 0.00 in /  0 mm
07:42 37.7 °F /  3.2 °C 37.2 °F /  2.9 °C 29.55 in /  1000.6 hPa NNE 0.8 mph /  1.3 km/h 2.3 mph /  3.7 km/h 98 % 0.00 in /  0 mm
07:43 37.7 °F /  3.2 °C 37.2 °F /  2.9 °C 29.55 in /  1000.6 hPa NNE 0.8 mph /  1.3 km/h 2.3 mph /  3.7 km/h 98 % 0.00 in /  0 mm
07:48 37.7 °F /  3.2 °C 37.2 °F /  2.9 °C 29.55 in /  1000.6 hPa Calm   2.0 mph /  3.2 km/h 98 % 0.00 in /  0 mm
07:53 37.7 °F /  3.2 °C 37.2 °F /  2.9 °C 29.55 in /  1000.6 hPa Calm   2.0 mph /  3.2 km/h 98 % 0.00 in /  0 mm
07:58 37.7 °F /  3.2 °C 37.2 °F /  2.9 °C 29.55 in /  1000.6 hPa Calm     98 % 0.00 in /  0 mm
08:03 37.8 °F /  3.2 °C 37.3 °F /  2.9 °C 29.55 in /  1000.6 hPa Calm   1.2 mph /  1.9 km/h 98 % 0.00 in /  0 mm
08:08 37.8 °F /  3.2 °C 37.3 °F /  2.9 °C 29.55 in /  1000.6 hPa Calm     98 % 0.00 in /  0 mm
08:14 37.9 °F /  3.3 °C 37.4 °F /  3 °C 29.55 in /  1000.6 hPa Calm     98 % 0.00 in /  0 mm
08:19 38.0 °F /  3.3 °C 37.5 °F /  3.1 °C 29.55 in /  1000.6 hPa Calm     98 % 0.00 in /  0 mm
08:24 38.1 °F /  3.4 °C 37.6 °F /  3.1 °C 29.55 in /  1000.6 hPa Calm     98 % 0.00 in /  0 mm
08:29 38.3 °F /  3.5 °C 37.8 °F /  3.2 °C 29.56 in /  1000.9 hPa Calm     98 % 0.00 in /  0 mm
08:34 38.4 °F /  3.6 °C 37.9 °F /  3.3 °C 29.56 in /  1000.9 hPa Calm     98 % 0.00 in /  0 mm
08:39 38.5 °F /  3.6 °C 38.0 °F /  3.3 °C 29.56 in /  1000.9 hPa Calm     98 % 0.00 in /  0 mm
08:44 38.6 °F /  3.7 °C 38.1 °F /  3.4 °C 29.57 in /  1001.2 hPa NNE 0.1 mph /  0.2 km/h 1.2 mph /  1.9 km/h 98 % 0.00 in /  0 mm
08:49 38.8 °F /  3.8 °C 38.3 °F /  3.5 °C 29.58 in /  1001.6 hPa Calm     98 % 0.00 in /  0 mm
08:54 39.2 °F /  4 °C 38.7 °F /  3.7 °C 29.58 in /  1001.6 hPa Calm   2.0 mph /  3.2 km/h 98 % 0.00 in /  0 mm
08:59 39.8 °F /  4.3 °C 39.3 °F /  4.1 °C 29.58 in /  1001.6 hPa Calm     98 % 0.00 in /  0 mm
09:04 39.9 °F /  4.4 °C 39.4 °F /  4.1 °C 29.58 in /  1001.6 hPa Calm     98 % 0.00 in /  0 mm
09:09 40.2 °F /  4.6 °C 39.7 °F /  4.3 °C 29.58 in /  1001.6 hPa South 0.2 mph /  0.3 km/h 1.2 mph /  1.9 km/h 98 % 0.00 in /  0 mm
09:14 40.6 °F /  4.8 °C 40.1 °F /  4.5 °C 29.58 in /  1001.6 hPa Calm   1.2 mph /  1.9 km/h 98 % 0.00 in /  0 mm
09:19 41.0 °F /  5 °C 40.5 °F /  4.7 °C 29.58 in /  1001.6 hPa South 1.6 mph /  2.6 km/h 2.0 mph /  3.2 km/h 98 % 0.00 in /  0 mm
09:24 41.5 °F /  5.3 °C 41.0 °F /  5 °C 29.58 in /  1001.6 hPa Calm     98 % 0.00 in /  0 mm
09:29 42.0 °F /  5.6 °C 41.5 °F /  5.3 °C 29.58 in /  1001.6 hPa SW 0.2 mph /  0.3 km/h 1.2 mph /  1.9 km/h 98 % 0.00 in /  0 mm
09:34 42.7 °F /  5.9 °C 42.2 °F /  5.7 °C 29.58 in /  1001.6 hPa WNW 0.8 mph /  1.3 km/h 3.5 mph /  5.6 km/h 98 % 0.00 in /  0 mm
09:39 43.7 °F /  6.5 °C 43.4 °F /  6.3 °C 29.59 in /  1001.9 hPa NNW 1.9 mph /  3.1 km/h 3.5 mph /  5.6 km/h 99 % 0.00 in /  0 mm
09:44 43.6 °F /  6.4 °C 43.1 °F /  6.2 °C 29.60 in /  1002.3 hPa NW 0.7 mph /  1.1 km/h 3.5 mph /  5.6 km/h 98 % 0.00 in /  0 mm
09:49 43.3 °F /  6.3 °C 42.8 °F /  6 °C 29.60 in /  1002.3 hPa WNW 2.2 mph /  3.5 km/h 5.8 mph /  9.3 km/h 98 % 0.00 in /  0 mm
09:54 43.2 °F /  6.2 °C 42.7 °F /  5.9 °C 29.61 in /  1002.6 hPa WNW 1.7 mph /  2.7 km/h 3.5 mph /  5.6 km/h 98 % 0.00 in /  0 mm
10:00 43.1 °F /  6.2 °C 42.6 °F /  5.9 °C 29.61 in /  1002.6 hPa WNW 0.6 mph /  1 km/h 2.0 mph /  3.2 km/h 98 % 0.00 in /  0 mm
10:05 43.1 °F /  6.2 °C 42.6 °F /  5.9 °C 29.61 in /  1002.6 hPa WNW 0.6 mph /  1 km/h 2.3 mph /  3.7 km/h 98 % 0.00 in /  0 mm
10:10 42.9 °F /  6.1 °C 42.4 °F /  5.8 °C 29.61 in /  1002.6 hPa WNW 2.3 mph /  3.7 km/h 4.0 mph /  6.4 km/h 98 % 0.00 in /  0 mm
10:15 42.8 °F /  6 °C 42.3 °F /  5.7 °C 29.61 in /  1002.6 hPa WNW 1.7 mph /  2.7 km/h 3.5 mph /  5.6 km/h 98 % 0.00 in /  0 mm
10:20 42.8 °F /  6 °C 42.3 °F /  5.7 °C 29.62 in /  1002.9 hPa Calm     98 % 0.00 in /  0 mm
10:25 42.9 °F /  6.1 °C 42.4 °F /  5.8 °C 29.62 in /  1002.9 hPa WNW 1.0 mph /  1.6 km/h 2.3 mph /  3.7 km/h 98 % 0.00 in /  0 mm
10:30 43.2 °F /  6.2 °C 42.7 °F /  5.9 °C 29.62 in /  1002.9 hPa WNW 0.7 mph /  1.1 km/h 1.2 mph /  1.9 km/h 98 % 0.00 in /  0 mm
10:35 43.9 °F /  6.6 °C 43.4 °F /  6.3 °C 29.62 in /  1002.9 hPa WNW 0.7 mph /  1.1 km/h 3.5 mph /  5.6 km/h 98 % 0.00 in /  0 mm
10:40 44.8 °F /  7.1 °C 44.3 °F /  6.8 °C 29.62 in /  1002.9 hPa West 3.4 mph /  5.5 km/h 3.5 mph /  5.6 km/h 98 % 0.00 in /  0 mm
10:45 45.7 °F /  7.6 °C 45.2 °F /  7.3 °C 29.62 in /  1002.9 hPa WSW 1.8 mph /  2.9 km/h 4.6 mph /  7.4 km/h 98 % 0.00 in /  0 mm
10:50 46.7 °F /  8.2 °C 46.2 °F /  7.9 °C 29.62 in /  1002.9 hPa West 0.8 mph /  1.3 km/h 3.5 mph /  5.6 km/h 98 % 0.00 in /  0 mm
10:55 47.4 °F /  8.6 °C 47.1 °F /  8.4 °C 29.62 in /  1002.9 hPa SSW 1.7 mph /  2.7 km/h 5.8 mph /  9.3 km/h 99 % 0.00 in /  0 mm
11:00 48.3 °F /  9.1 °C 47.8 °F /  8.8 °C 29.62 in /  1002.9 hPa SW 4.4 mph /  7.1 km/h 6.9 mph /  11.1 km/h 98 % 0.00 in /  0 mm
11:05 49.3 °F /  9.6 °C 48.8 °F /  9.3 °C 29.63 in /  1003.3 hPa WSW 3.0 mph /  4.8 km/h 3.5 mph /  5.6 km/h 98 % 0.00 in /  0 mm
11:10 50.0 °F /  10 °C 49.5 °F /  9.7 °C 29.62 in /  1002.9 hPa WNW 3.4 mph /  5.5 km/h 4.0 mph /  6.4 km/h 98 % 0.00 in /  0 mm
11:15 50.4 °F /  10.2 °C 50.1 °F /  10.1 °C 29.62 in /  1002.9 hPa WSW 1.9 mph /  3.1 km/h 3.5 mph /  5.6 km/h 99 % 0.00 in /  0 mm
11:20 51.0 °F /  10.6 °C 50.7 °F /  10.4 °C 29.62 in /  1002.9 hPa WSW 3.7 mph /  6 km/h 6.9 mph /  11.1 km/h 99 % 0.00 in /  0 mm
11:25 51.4 °F /  10.8 °C 51.1 °F /  10.6 °C 29.62 in /  1002.9 hPa WNW 2.5 mph /  4 km/h 4.6 mph /  7.4 km/h 99 % 0.00 in /  0 mm
11:31 51.9 °F /  11.1 °C 51.6 °F /  10.9 °C 29.62 in /  1002.9 hPa WNW 1.1 mph /  1.8 km/h 3.5 mph /  5.6 km/h 99 % 0.00 in /  0 mm
11:36 52.4 °F /  11.3 °C 51.9 °F /  11.1 °C 29.62 in /  1002.9 hPa SW 2.1 mph /  3.4 km/h 4.6 mph /  7.4 km/h 98 % 0.00 in /  0 mm
11:41 52.8 °F /  11.6 °C 52.3 °F /  11.3 °C 29.62 in /  1002.9 hPa WSW 0.6 mph /  1 km/h 2.3 mph /  3.7 km/h 98 % 0.00 in /  0 mm
11:46 53.3 °F /  11.8 °C 52.5 °F /  11.4 °C 29.61 in /  1002.6 hPa West 1.4 mph /  2.3 km/h 4.0 mph /  6.4 km/h 97 % 0.00 in /  0 mm
11:51 53.9 °F /  12.2 °C 52.5 °F /  11.4 °C 29.61 in /  1002.6 hPa West 4.6 mph /  7.4 km/h 5.8 mph /  9.3 km/h 95 % 0.00 in /  0 mm
11:56 54.4 °F /  12.4 °C 51.8 °F /  11 °C 29.61 in /  1002.6 hPa West 0.3 mph /  0.5 km/h 2.3 mph /  3.7 km/h 91 % 0.00 in /  0 mm
12:01 54.8 °F /  12.7 °C 51.3 °F /  10.7 °C 29.61 in /  1002.6 hPa WSW 4.2 mph /  6.8 km/h 4.6 mph /  7.4 km/h 88 % 0.00 in /  0 mm
12:06 55.2 °F /  12.9 °C 51.1 °F /  10.6 °C 29.61 in /  1002.6 hPa WSW 2.8 mph /  4.5 km/h 5.0 mph /  8 km/h 86 % 0.00 in /  0 mm
12:11 55.5 °F /  13.1 °C 51.1 °F /  10.6 °C 29.61 in /  1002.6 hPa WNW 2.3 mph /  3.7 km/h 6.9 mph /  11.1 km/h 85 % 0.00 in /  0 mm
12:16 55.7 °F /  13.2 °C 50.6 °F /  10.3 °C 29.61 in /  1002.6 hPa West 5.1 mph /  8.2 km/h 9.2 mph /  14.8 km/h 83 % 0.00 in /  0 mm
12:21 55.9 °F /  13.3 °C 50.5 °F /  10.3 °C 29.61 in /  1002.6 hPa SW 2.1 mph /  3.4 km/h 5.0 mph /  8 km/h 82 % 0.00 in /  0 mm
12:26 56.3 °F /  13.5 °C 50.2 °F /  10.1 °C 29.61 in /  1002.6 hPa WNW 3.8 mph /  6.1 km/h 5.8 mph /  9.3 km/h 80 % 0.00 in /  0 mm
12:31 56.6 °F /  13.7 °C 49.5 °F /  9.7 °C 29.62 in /  1002.9 hPa WNW 4.5 mph /  7.2 km/h 6.9 mph /  11.1 km/h 77 % 0.00 in /  0 mm
12:36 56.9 °F /  13.8 °C 49.1 °F /  9.5 °C 29.62 in /  1002.9 hPa WNW 2.6 mph /  4.2 km/h 6.0 mph /  9.7 km/h 75 % 0.00 in /  0 mm
12:41 57.0 °F /  13.9 °C 48.4 °F /  9.1 °C 29.62 in /  1002.9 hPa WNW 3.0 mph /  4.8 km/h 5.8 mph /  9.3 km/h 73 % 0.00 in /  0 mm
12:46 57.1 °F /  13.9 °C 47.8 °F /  8.8 °C 29.62 in /  1002.9 hPa NW 3.3 mph /  5.3 km/h 6.9 mph /  11.1 km/h 71 % 0.00 in /  0 mm
12:51 57.3 °F /  14.1 °C 47.6 °F /  8.7 °C 29.62 in /  1002.9 hPa WNW 3.1 mph /  5 km/h 8.1 mph /  13 km/h 70 % 0.00 in /  0 mm
12:57 57.5 °F /  14.2 °C 47.4 °F /  8.6 °C 29.62 in /  1002.9 hPa WNW 2.9 mph /  4.7 km/h 6.0 mph /  9.7 km/h 69 % 0.00 in /  0 mm
13:02 57.7 °F /  14.3 °C 47.2 °F /  8.4 °C 29.62 in /  1002.9 hPa West 2.6 mph /  4.2 km/h 4.6 mph /  7.4 km/h 68 % 0.00 in /  0 mm
13:07 57.8 °F /  14.3 °C 46.9 °F /  8.3 °C 29.62 in /  1002.9 hPa WSW 3.0 mph /  4.8 km/h 5.0 mph /  8 km/h 67 % 0.00 in /  0 mm
13:12 58.2 °F /  14.6 °C 47.3 °F /  8.5 °C 29.61 in /  1002.6 hPa West 1.0 mph /  1.6 km/h 2.3 mph /  3.7 km/h 67 % 0.00 in /  0 mm
13:17 58.5 °F /  14.7 °C 47.6 °F /  8.7 °C 29.61 in /  1002.6 hPa WSW 2.6 mph /  4.2 km/h 4.6 mph /  7.4 km/h 67 % 0.00 in /  0 mm
13:22 58.7 °F /  14.8 °C 47.0 °F /  8.3 °C 29.61 in /  1002.6 hPa WNW 3.5 mph /  5.6 km/h 6.9 mph /  11.1 km/h 65 % 0.00 in /  0 mm
13:27 59.0 °F /  15 °C 46.8 °F /  8.2 °C 29.61 in /  1002.6 hPa WNW 1.1 mph /  1.8 km/h 4.6 mph /  7.4 km/h 64 % 0.00 in /  0 mm
13:32 59.2 °F /  15.1 °C 46.6 °F /  8.1 °C 29.61 in /  1002.6 hPa WNW 2.0 mph /  3.2 km/h 4.0 mph /  6.4 km/h 63 % 0.00 in /  0 mm
13:37 59.5 °F /  15.3 °C 46.5 °F /  8.1 °C 29.61 in /  1002.6 hPa West 4.4 mph /  7.1 km/h 5.8 mph /  9.3 km/h 62 % 0.00 in /  0 mm
13:42 59.7 °F /  15.4 °C 46.7 °F /  8.2 °C 29.61 in /  1002.6 hPa WNW 2.8 mph /  4.5 km/h 6.9 mph /  11.1 km/h 62 % 0.00 in /  0 mm
13:47 59.9 °F /  15.5 °C 46.0 °F /  7.8 °C 29.61 in /  1002.6 hPa West 3.5 mph /  5.6 km/h 6.9 mph /  11.1 km/h 60 % 0.00 in /  0 mm
13:52 60.0 °F /  15.6 °C 46.1 °F /  7.8 °C 29.61 in /  1002.6 hPa WNW 3.9 mph /  6.3 km/h 5.0 mph /  8 km/h 60 % 0.00 in /  0 mm
13:57 60.1 °F /  15.6 °C 45.3 °F /  7.4 °C 29.61 in /  1002.6 hPa WNW 3.7 mph /  6 km/h 8.1 mph /  13 km/h 58 % 0.00 in /  0 mm
14:02 60.0 °F /  15.6 °C 45.2 °F /  7.3 °C 29.61 in /  1002.6 hPa WSW 5.4 mph /  8.7 km/h 11.5 mph /  18.5 km/h 58 % 0.00 in /  0 mm
14:07 59.9 °F /  15.5 °C 44.6 °F /  7 °C 29.61 in /  1002.6 hPa WSW 3.9 mph /  6.3 km/h 7.0 mph /  11.3 km/h 57 % 0.00 in /  0 mm
14:13 59.8 °F /  15.4 °C 45.0 °F /  7.2 °C 29.61 in /  1002.6 hPa WNW 4.1 mph /  6.6 km/h 9.2 mph /  14.8 km/h 58 % 0.00 in /  0 mm
14:18 59.8 °F /  15.4 °C 45.0 °F /  7.2 °C 29.61 in /  1002.6 hPa West 5.4 mph /  8.7 km/h 6.9 mph /  11.1 km/h 58 % 0.00 in /  0 mm
14:23 59.8 °F /  15.4 °C 45.0 °F /  7.2 °C 29.61 in /  1002.6 hPa WSW 5.0 mph /  8 km/h 6.0 mph /  9.7 km/h 58 % 0.00 in /  0 mm
14:28 59.7 °F /  15.4 °C 44.4 °F /  6.9 °C 29.61 in /  1002.6 hPa NW 6.5 mph /  10.5 km/h 11.5 mph /  18.5 km/h 57 % 0.00 in /  0 mm
14:33 59.5 °F /  15.3 °C 44.7 °F /  7.1 °C 29.61 in /  1002.6 hPa WNW 2.4 mph /  3.9 km/h 5.8 mph /  9.3 km/h 58 % 0.00 in /  0 mm
14:38 59.3 °F /  15.2 °C 45.4 °F /  7.4 °C 29.61 in /  1002.6 hPa WNW 2.6 mph /  4.2 km/h 3.5 mph /  5.6 km/h 60 % 0.00 in /  0 mm
14:43 59.2 °F /  15.1 °C 44.9 °F /  7.2 °C 29.61 in /  1002.6 hPa WNW 1.0 mph /  1.6 km/h 3.5 mph /  5.6 km/h 59 % 0.00 in /  0 mm
14:48 59.1 °F /  15.1 °C 44.8 °F /  7.1 °C 29.61 in /  1002.6 hPa WNW 1.5 mph /  2.4 km/h 3.5 mph /  5.6 km/h 59 % 0.00 in /  0 mm
14:53 58.9 °F /  14.9 °C 44.1 °F /  6.7 °C 29.61 in /  1002.6 hPa NNW 3.1 mph /  5 km/h 5.8 mph /  9.3 km/h 58 % 0.00 in /  0 mm
14:58 58.6 °F /  14.8 °C 43.9 °F /  6.6 °C 29.61 in /  1002.6 hPa WNW 5.1 mph /  8.2 km/h 10.0 mph /  16.1 km/h 58 % 0.00 in /  0 mm
15:03 58.2 °F /  14.6 °C 43.5 °F /  6.4 °C 29.62 in /  1002.9 hPa WNW 3.7 mph /  6 km/h 9.2 mph /  14.8 km/h 58 % 0.00 in /  0 mm
15:08 57.7 °F /  14.3 °C 43.5 °F /  6.4 °C 29.62 in /  1002.9 hPa West 3.2 mph /  5.1 km/h 5.8 mph /  9.3 km/h 59 % 0.00 in /  0 mm
15:13 57.2 °F /  14 °C 43.0 °F /  6.1 °C 29.62 in /  1002.9 hPa NW 3.0 mph /  4.8 km/h 8.0 mph /  12.9 km/h 59 % 0.00 in /  0 mm
15:18 56.7 °F /  13.7 °C 42.6 °F /  5.9 °C 29.62 in /  1002.9 hPa NW 3.0 mph /  4.8 km/h 9.0 mph /  14.5 km/h 59 % 0.00 in /  0 mm
15:23 56.1 °F /  13.4 °C 42.4 °F /  5.8 °C 29.62 in /  1002.9 hPa NNW 3.0 mph /  4.8 km/h 10.0 mph /  16.1 km/h 60 % 0.00 in /  0 mm
15:28 55.6 °F /  13.1 °C 41.9 °F /  5.5 °C 29.62 in /  1002.9 hPa North 3.0 mph /  4.8 km/h 10.4 mph /  16.7 km/h 60 % 0.00 in /  0 mm
15:33 55.3 °F /  12.9 °C 42.1 °F /  5.6 °C 29.62 in /  1002.9 hPa NW 2.0 mph /  3.2 km/h 8.0 mph /  12.9 km/h 61 % 0.00 in /  0 mm
15:38 55.0 °F /  12.8 °C 42.2 °F /  5.7 °C 29.62 in /  1002.9 hPa NW 3.0 mph /  4.8 km/h 8.0 mph /  12.9 km/h 62 % 0.00 in /  0 mm
15:43 54.8 °F /  12.7 °C 41.6 °F /  5.3 °C 29.62 in /  1002.9 hPa NW 3.0 mph /  4.8 km/h 8.0 mph /  12.9 km/h 61 % 0.00 in /  0 mm
15:48 54.6 °F /  12.6 °C 41.4 °F /  5.2 °C 29.62 in /  1002.9 hPa NW 2.0 mph /  3.2 km/h 7.0 mph /  11.3 km/h 61 % 0.00 in /  0 mm
15:53 54.4 °F /  12.4 °C 41.2 °F /  5.1 °C 29.62 in /  1002.9 hPa North 4.5 mph /  7.2 km/h 8.0 mph /  12.9 km/h 61 % 0.00 in /  0 mm
15:58 54.0 °F /  12.2 °C 41.3 °F /  5.2 °C 29.62 in /  1002.9 hPa North 3.7 mph /  6 km/h 6.9 mph /  11.1 km/h 62 % 0.00 in /  0 mm
16:03 53.7 °F /  12.1 °C 41.0 °F /  5 °C 29.63 in /  1003.3 hPa NW 3.8 mph /  6.1 km/h 5.8 mph /  9.3 km/h 62 % 0.00 in /  0 mm
16:08 53.4 °F /  11.9 °C 41.2 °F /  5.1 °C 29.63 in /  1003.3 hPa NW 1.0 mph /  1.6 km/h 5.0 mph /  8 km/h 63 % 0.00 in /  0 mm
16:13 53.1 °F /  11.7 °C 40.8 °F /  4.9 °C 29.63 in /  1003.3 hPa NW 3.0 mph /  4.8 km/h 12.0 mph /  19.3 km/h 63 % 0.00 in /  0 mm
16:18 52.7 °F /  11.5 °C 40.5 °F /  4.7 °C 29.63 in /  1003.3 hPa NW 5.0 mph /  8 km/h 10.0 mph /  16.1 km/h 63 % 0.00 in /  0 mm
16:23 52.6 °F /  11.4 °C 39.9 °F /  4.4 °C 29.64 in /  1003.6 hPa NW 3.0 mph /  4.8 km/h 10.0 mph /  16.1 km/h 62 % 0.00 in /  0 mm
16:28 52.4 °F /  11.3 °C 40.2 °F /  4.6 °C 29.64 in /  1003.6 hPa NW 2.0 mph /  3.2 km/h 6.0 mph /  9.7 km/h 63 % 0.00 in /  0 mm
16:33 52.4 °F /  11.3 °C 40.2 °F /  4.6 °C 29.65 in /  1003.9 hPa NW 2.0 mph /  3.2 km/h 7.0 mph /  11.3 km/h 63 % 0.00 in /  0 mm
16:38 52.3 °F /  11.3 °C 40.1 °F /  4.5 °C 29.65 in /  1003.9 hPa NW 3.0 mph /  4.8 km/h 7.0 mph /  11.3 km/h 63 % 0.00 in /  0 mm
16:43 52.0 °F /  11.1 °C 40.2 °F /  4.6 °C 29.66 in /  1004.3 hPa NW 1.0 mph /  1.6 km/h 6.0 mph /  9.7 km/h 64 % 0.00 in /  0 mm
16:48 51.7 °F /  10.9 °C 39.9 °F /  4.4 °C 29.66 in /  1004.3 hPa NW 3.0 mph /  4.8 km/h 5.0 mph /  8 km/h 64 % 0.00 in /  0 mm
16:53 51.5 °F /  10.8 °C 39.7 °F /  4.3 °C 29.66 in /  1004.3 hPa NNW 5.0 mph /  8 km/h 9.0 mph /  14.5 km/h 64 % 0.00 in /  0 mm
16:58 51.2 °F /  10.7 °C 39.8 °F /  4.3 °C 29.66 in /  1004.3 hPa NW 2.6 mph /  4.2 km/h 3.5 mph /  5.6 km/h 65 % 0.00 in /  0 mm
17:03 51.0 °F /  10.6 °C 40.0 °F /  4.4 °C 29.66 in /  1004.3 hPa NNW 4.2 mph /  6.8 km/h 8.1 mph /  13 km/h 66 % 0.00 in /  0 mm
17:08 50.8 °F /  10.4 °C 40.2 °F /  4.6 °C 29.66 in /  1004.3 hPa Calm   6.0 mph /  9.7 km/h 67 % 0.00 in /  0 mm
17:13 50.5 °F /  10.3 °C 39.9 °F /  4.4 °C 29.66 in /  1004.3 hPa WNW 2.0 mph /  3.2 km/h 5.0 mph /  8 km/h 67 % 0.00 in /  0 mm
17:18 50.3 °F /  10.2 °C 39.7 °F /  4.3 °C 29.66 in /  1004.3 hPa NW 1.0 mph /  1.6 km/h 5.0 mph /  8 km/h 67 % 0.00 in /  0 mm
17:23 49.9 °F /  9.9 °C 39.8 °F /  4.3 °C 29.66 in /  1004.3 hPa NNW 2.0 mph /  3.2 km/h 7.0 mph /  11.3 km/h 68 % 0.00 in /  0 mm
17:28 49.6 °F /  9.8 °C 39.5 °F /  4.2 °C 29.66 in /  1004.3 hPa NW 2.0 mph /  3.2 km/h 8.0 mph /  12.9 km/h 68 % 0.00 in /  0 mm
17:33 49.4 °F /  9.7 °C 39.3 °F /  4.1 °C 29.66 in /  1004.3 hPa NW 2.0 mph /  3.2 km/h 9.0 mph /  14.5 km/h 68 % 0.00 in /  0 mm
17:38 49.1 °F /  9.5 °C 39.4 °F /  4.1 °C 29.66 in /  1004.3 hPa NNW 2.0 mph /  3.2 km/h 5.0 mph /  8 km/h 69 % 0.00 in /  0 mm
17:43 48.9 °F /  9.4 °C 38.8 °F /  3.8 °C 29.66 in /  1004.3 hPa NW 2.0 mph /  3.2 km/h 8.0 mph /  12.9 km/h 68 % 0.00 in /  0 mm
17:48 48.7 °F /  9.3 °C 38.9 °F /  3.8 °C 29.66 in /  1004.3 hPa NW 2.0 mph /  3.2 km/h 4.0 mph /  6.4 km/h 69 % 0.00 in /  0 mm
17:53 48.4 °F /  9.1 °C 38.7 °F /  3.7 °C 29.66 in /  1004.3 hPa NW 3.0 mph /  4.8 km/h 7.0 mph /  11.3 km/h 69 % 0.00 in /  0 mm
17:58 48.2 °F /  9 °C 37.8 °F /  3.2 °C 29.66 in /  1004.3 hPa NNW 2.3 mph /  3.7 km/h 4.6 mph /  7.4 km/h 67 % 0.00 in /  0 mm
18:03 48.1 °F /  8.9 °C 37.7 °F /  3.2 °C 29.66 in /  1004.3 hPa NNW 4.2 mph /  6.8 km/h 8.1 mph /  13 km/h 67 % 0.00 in /  0 mm
18:08 48.0 °F /  8.9 °C 37.2 °F /  2.9 °C 29.66 in /  1004.3 hPa NW 1.6 mph /  2.6 km/h 3.5 mph /  5.6 km/h 66 % 0.00 in /  0 mm
18:14 47.9 °F /  8.8 °C 37.1 °F /  2.8 °C 29.66 in /  1004.3 hPa NW 1.1 mph /  1.8 km/h 2.3 mph /  3.7 km/h 66 % 0.00 in /  0 mm
18:19 47.8 °F /  8.8 °C 37.0 °F /  2.8 °C 29.66 in /  1004.3 hPa NNW 2.4 mph /  3.9 km/h 3.5 mph /  5.6 km/h 66 % 0.00 in /  0 mm
18:24 47.7 °F /  8.7 °C 36.9 °F /  2.7 °C 29.66 in /  1004.3 hPa NW 2.8 mph /  4.5 km/h 4.6 mph /  7.4 km/h 66 % 0.00 in /  0 mm
18:29 47.5 °F /  8.6 °C 36.3 °F /  2.4 °C 29.66 in /  1004.3 hPa WNW 2.3 mph /  3.7 km/h 4.6 mph /  7.4 km/h 65 % 0.00 in /  0 mm
18:34 47.5 °F /  8.6 °C 35.9 °F /  2.2 °C 29.66 in /  1004.3 hPa NW 1.4 mph /  2.3 km/h 4.6 mph /  7.4 km/h 64 % 0.00 in /  0 mm
18:39 47.4 °F /  8.6 °C 35.8 °F /  2.1 °C 29.66 in /  1004.3 hPa NW 1.5 mph /  2.4 km/h 3.5 mph /  5.6 km/h 64 % 0.00 in /  0 mm
18:44 47.4 °F /  8.6 °C 35.8 °F /  2.1 °C 29.67 in /  1004.6 hPa WNW 4.2 mph /  6.8 km/h 6.0 mph /  9.7 km/h 64 % 0.00 in /  0 mm
18:49 47.5 °F /  8.6 °C 35.5 °F /  1.9 °C 29.67 in /  1004.6 hPa NW 2.5 mph /  4 km/h 4.6 mph /  7.4 km/h 63 % 0.00 in /  0 mm
18:54 47.5 °F /  8.6 °C 35.9 °F /  2.2 °C 29.67 in /  1004.6 hPa NNW 2.9 mph /  4.7 km/h 5.8 mph /  9.3 km/h 64 % 0.00 in /  0 mm
18:59 47.6 °F /  8.7 °C 35.6 °F /  2 °C 29.67 in /  1004.6 hPa NW 2.6 mph /  4.2 km/h 4.6 mph /  7.4 km/h 63 % 0.00 in /  0 mm
19:04 47.5 °F /  8.6 °C 35.5 °F /  1.9 °C 29.67 in /  1004.6 hPa NW 2.7 mph /  4.3 km/h 6.9 mph /  11.1 km/h 63 % 0.00 in /  0 mm
19:09 47.4 °F /  8.6 °C 35.4 °F /  1.9 °C 29.67 in /  1004.6 hPa NW 3.1 mph /  5 km/h 6.9 mph /  11.1 km/h 63 % 0.00 in /  0 mm
19:14 47.4 °F /  8.6 °C 36.2 °F /  2.3 °C 29.68 in /  1005 hPa NNW 3.2 mph /  5.1 km/h 8.1 mph /  13 km/h 65 % 0.00 in /  0 mm
19:19 47.2 °F /  8.4 °C 36.4 °F /  2.4 °C 29.67 in /  1004.6 hPa NW 0.9 mph /  1.4 km/h 3.5 mph /  5.6 km/h 66 % 0.00 in /  0 mm
19:24 47.0 °F /  8.3 °C 36.6 °F /  2.6 °C 29.68 in /  1005 hPa NW 2.1 mph /  3.4 km/h 4.6 mph /  7.4 km/h 67 % 0.00 in /  0 mm
19:25 47.0 °F /  8.3 °C 36.6 °F /  2.6 °C 29.67 in /  1004.6 hPa NW 1.7 mph /  2.7 km/h 3.5 mph /  5.6 km/h 67 % 0.00 in /  0 mm
19:30 46.7 °F /  8.2 °C 36.7 °F /  2.6 °C 29.68 in /  1005 hPa North 1.3 mph /  2.1 km/h 3.5 mph /  5.6 km/h 68 % 0.00 in /  0 mm
19:35 46.4 °F /  8 °C 36.8 °F /  2.7 °C 29.69 in /  1005.3 hPa NW 1.2 mph /  1.9 km/h 2.3 mph /  3.7 km/h 69 % 0.00 in /  0 mm
19:40 46.1 °F /  7.8 °C 37.2 °F /  2.9 °C 29.69 in /  1005.3 hPa NNW 1.2 mph /  1.9 km/h 3.5 mph /  5.6 km/h 71 % 0.00 in /  0 mm
19:45 45.8 °F /  7.7 °C 37.3 °F /  2.9 °C 29.69 in /  1005.3 hPa NNW 3.1 mph /  5 km/h 5.8 mph /  9.3 km/h 72 % 0.00 in /  0 mm
19:50 45.5 °F /  7.5 °C 37.3 °F /  2.9 °C 29.69 in /  1005.3 hPa NNW 3.2 mph /  5.1 km/h 4.0 mph /  6.4 km/h 73 % 0.00 in /  0 mm
19:55 45.1 °F /  7.3 °C 37.3 °F /  2.9 °C 29.69 in /  1005.3 hPa NNE 4.6 mph /  7.4 km/h 6.9 mph /  11.1 km/h 74 % 0.00 in /  0 mm
20:00 44.9 °F /  7.2 °C 37.5 °F /  3.1 °C 29.69 in /  1005.3 hPa North 3.6 mph /  5.8 km/h 7.0 mph /  11.3 km/h 75 % 0.00 in /  0 mm
20:05 44.6 °F /  7 °C 37.2 °F /  2.9 °C 29.69 in /  1005.3 hPa North 6.9 mph /  11.1 km/h 11.5 mph /  18.5 km/h 75 % 0.00 in /  0 mm
20:10 44.4 °F /  6.9 °C 37.0 °F /  2.8 °C 29.69 in /  1005.3 hPa North 6.0 mph /  9.7 km/h 10.4 mph /  16.7 km/h 75 % 0.00 in /  0 mm
20:15 44.4 °F /  6.9 °C 36.6 °F /  2.6 °C 29.69 in /  1005.3 hPa NNW 5.0 mph /  8 km/h 6.9 mph /  11.1 km/h 74 % 0.00 in /  0 mm
20:20 44.5 °F /  6.9 °C 36.4 °F /  2.4 °C 29.69 in /  1005.3 hPa North 5.1 mph /  8.2 km/h 8.1 mph /  13 km/h 73 % 0.00 in /  0 mm
20:25 44.4 °F /  6.9 °C 36.3 °F /  2.4 °C 29.69 in /  1005.3 hPa NNE 4.9 mph /  7.9 km/h 6.9 mph /  11.1 km/h 73 % 0.00 in /  0 mm
20:30 44.4 °F /  6.9 °C 36.3 °F /  2.4 °C 29.69 in /  1005.3 hPa North 5.7 mph /  9.2 km/h 9.2 mph /  14.8 km/h 73 % 0.00 in /  0 mm
20:35 44.5 °F /  6.9 °C 35.7 °F /  2.1 °C 29.69 in /  1005.3 hPa NNE 4.9 mph /  7.9 km/h 7.0 mph /  11.3 km/h 71 % 0.00 in /  0 mm
20:40 44.5 °F /  6.9 °C 35.7 °F /  2.1 °C 29.70 in /  1005.6 hPa NNE 5.3 mph /  8.5 km/h 8.1 mph /  13 km/h 71 % 0.00 in /  0 mm
20:45 44.5 °F /  6.9 °C 35.7 °F /  2.1 °C 29.70 in /  1005.6 hPa North 3.5 mph /  5.6 km/h 4.6 mph /  7.4 km/h 71 % 0.00 in /  0 mm
20:50 44.5 °F /  6.9 °C 35.7 °F /  2.1 °C 29.70 in /  1005.6 hPa North 3.2 mph /  5.1 km/h 4.6 mph /  7.4 km/h 71 % 0.00 in /  0 mm
20:55 44.4 °F /  6.9 °C 35.6 °F /  2 °C 29.70 in /  1005.6 hPa NNW 2.9 mph /  4.7 km/h 4.6 mph /  7.4 km/h 71 % 0.00 in /  0 mm
21:00 44.4 °F /  6.9 °C 35.6 °F /  2 °C 29.70 in /  1005.6 hPa NNW 2.6 mph /  4.2 km/h 5.0 mph /  8 km/h 71 % 0.00 in /  0 mm
21:05 44.3 °F /  6.8 °C 35.5 °F /  1.9 °C 29.70 in /  1005.6 hPa NW 1.9 mph /  3.1 km/h 4.6 mph /  7.4 km/h 71 % 0.00 in /  0 mm
21:10 44.2 °F /  6.8 °C 35.4 °F /  1.9 °C 29.70 in /  1005.6 hPa NNW 2.8 mph /  4.5 km/h 5.0 mph /  8 km/h 71 % 0.00 in /  0 mm
21:15 44.1 °F /  6.7 °C 35.6 °F /  2 °C 29.70 in /  1005.6 hPa NNE 2.5 mph /  4 km/h 3.5 mph /  5.6 km/h 72 % 0.00 in /  0 mm
21:20 44.0 °F /  6.7 °C 35.6 °F /  2 °C 29.70 in /  1005.6 hPa NNE 3.3 mph /  5.3 km/h 7.0 mph /  11.3 km/h 72 % 0.00 in /  0 mm
21:25 43.8 °F /  6.6 °C 35.7 °F /  2.1 °C 29.69 in /  1005.3 hPa North 4.3 mph /  6.9 km/h 8.1 mph /  13 km/h 73 % 0.00 in /  0 mm
21:30 43.7 °F /  6.5 °C 35.6 °F /  2 °C 29.69 in /  1005.3 hPa North 3.9 mph /  6.3 km/h 6.9 mph /  11.1 km/h 73 % 0.00 in /  0 mm
21:35 43.6 °F /  6.4 °C 35.5 °F /  1.9 °C 29.69 in /  1005.3 hPa North 3.5 mph /  5.6 km/h 8.1 mph /  13 km/h 73 % 0.00 in /  0 mm
21:40 43.5 °F /  6.4 °C 35.4 °F /  1.9 °C 29.69 in /  1005.3 hPa NNE 3.7 mph /  6 km/h 7.0 mph /  11.3 km/h 73 % 0.00 in /  0 mm
21:46 43.4 °F /  6.3 °C 35.7 °F /  2.1 °C 29.70 in /  1005.6 hPa North 3.0 mph /  4.8 km/h 4.6 mph /  7.4 km/h 74 % 0.00 in /  0 mm
21:51 43.2 °F /  6.2 °C 35.8 °F /  2.1 °C 29.70 in /  1005.6 hPa NNE 4.3 mph /  6.9 km/h 5.8 mph /  9.3 km/h 75 % 0.00 in /  0 mm
21:56 43.2 °F /  6.2 °C 35.8 °F /  2.1 °C 29.69 in /  1005.3 hPa NNE 2.1 mph /  3.4 km/h 3.5 mph /  5.6 km/h 75 % 0.00 in /  0 mm
22:01 43.0 °F /  6.1 °C 36.0 °F /  2.2 °C 29.69 in /  1005.3 hPa North 0.7 mph /  1.1 km/h 3.5 mph /  5.6 km/h 76 % 0.00 in /  0 mm
22:06 42.9 °F /  6.1 °C 35.9 °F /  2.2 °C 29.69 in /  1005.3 hPa NNE 1.0 mph /  1.6 km/h 2.3 mph /  3.7 km/h 76 % 0.00 in /  0 mm
22:11 42.7 °F /  5.9 °C 36.3 °F /  2.4 °C 29.69 in /  1005.3 hPa NNE 1.1 mph /  1.8 km/h 2.3 mph /  3.7 km/h 78 % 0.00 in /  0 mm
22:16 42.5 °F /  5.8 °C 36.4 °F /  2.4 °C 29.69 in /  1005.3 hPa NE 1.1 mph /  1.8 km/h 3.5 mph /  5.6 km/h 79 % 0.00 in /  0 mm
22:21 42.3 °F /  5.7 °C 36.3 °F /  2.4 °C 29.69 in /  1005.3 hPa NE 1.0 mph /  1.6 km/h 2.3 mph /  3.7 km/h 79 % 0.00 in /  0 mm
22:26 42.1 °F /  5.6 °C 36.1 °F /  2.3 °C 29.69 in /  1005.3 hPa NE 0.3 mph /  0.5 km/h 2.3 mph /  3.7 km/h 79 % 0.00 in /  0 mm
22:31 41.9 °F /  5.5 °C 35.9 °F /  2.2 °C 29.69 in /  1005.3 hPa NE 1.8 mph /  2.9 km/h 3.5 mph /  5.6 km/h 79 % 0.00 in /  0 mm
22:36 41.7 °F /  5.4 °C 35.7 °F /  2.1 °C 29.69 in /  1005.3 hPa NNE 2.3 mph /  3.7 km/h 4.6 mph /  7.4 km/h 79 % 0.00 in /  0 mm
22:41 41.5 °F /  5.3 °C 35.8 °F /  2.1 °C 29.68 in /  1005 hPa NNE 5.3 mph /  8.5 km/h 6.9 mph /  11.1 km/h 80 % 0.00 in /  0 mm
22:46 41.4 °F /  5.2 °C 35.7 °F /  2.1 °C 29.68 in /  1005 hPa NE 6.8 mph /  10.9 km/h 9.2 mph /  14.8 km/h 80 % 0.00 in /  0 mm
22:51 41.2 °F /  5.1 °C 35.2 °F /  1.8 °C 29.68 in /  1005 hPa NNE 5.5 mph /  8.9 km/h 10.4 mph /  16.7 km/h 79 % 0.00 in /  0 mm
22:56 41.2 °F /  5.1 °C 34.9 °F /  1.6 °C 29.68 in /  1005 hPa NNE 7.1 mph /  11.4 km/h 10.4 mph /  16.7 km/h 78 % 0.00 in /  0 mm
23:01 41.2 °F /  5.1 °C 34.9 °F /  1.6 °C 29.68 in /  1005 hPa NNE 6.1 mph /  9.8 km/h 9.2 mph /  14.8 km/h 78 % 0.00 in /  0 mm
23:06 41.2 °F /  5.1 °C 35.2 °F /  1.8 °C 29.68 in /  1005 hPa NNE 6.7 mph /  10.8 km/h 8.1 mph /  13 km/h 79 % 0.00 in /  0 mm
23:11 41.2 °F /  5.1 °C 35.2 °F /  1.8 °C 29.68 in /  1005 hPa ENE 3.9 mph /  6.3 km/h 8.1 mph /  13 km/h 79 % 0.00 in /  0 mm
23:16 41.1 °F /  5.1 °C 36.0 °F /  2.2 °C 29.68 in /  1005 hPa ENE 1.7 mph /  2.7 km/h 3.5 mph /  5.6 km/h 82 % 0.00 in /  0 mm
23:21 41.0 °F /  5 °C 35.9 °F /  2.2 °C 29.68 in /  1005 hPa NNE 0.6 mph /  1 km/h 3.5 mph /  5.6 km/h 82 % 0.00 in /  0 mm
23:26 40.9 °F /  4.9 °C 35.8 °F /  2.1 °C 29.69 in /  1005.3 hPa NNE 0.1 mph /  0.2 km/h 1.0 mph /  1.6 km/h 82 % 0.00 in /  0 mm
23:32 40.8 °F /  4.9 °C 35.4 °F /  1.9 °C 29.69 in /  1005.3 hPa NNE 3.5 mph /  5.6 km/h 5.8 mph /  9.3 km/h 81 % 0.00 in /  0 mm
23:37 40.7 °F /  4.8 °C 35.3 °F /  1.8 °C 29.69 in /  1005.3 hPa NNE 1.5 mph /  2.4 km/h 4.6 mph /  7.4 km/h 81 % 0.00 in /  0 mm
23:42 40.6 °F /  4.8 °C 35.2 °F /  1.8 °C 29.69 in /  1005.3 hPa NNE 0.6 mph /  1 km/h 2.3 mph /  3.7 km/h 81 % 0.00 in /  0 mm
23:47 40.5 °F /  4.7 °C 35.4 °F /  1.9 °C 29.68 in /  1005 hPa ENE 1.4 mph /  2.3 km/h 3.5 mph /  5.6 km/h 82 % 0.00 in /  0 mm
23:52 40.5 °F /  4.7 °C 35.7 °F /  2.1 °C 29.68 in /  1005 hPa ENE 2.9 mph /  4.7 km/h 3.5 mph /  5.6 km/h 83 % 0.00 in /  0 mm
23:57 40.5 °F /  4.7 °C 36.0 °F /  2.2 °C 29.69 in /  1005.3 hPa ENE 3.5 mph /  5.6 km/h 3.5 mph /  5.6 km/h 84 % 0.00 in /  0 mm
Crab Meadow Weather
Compliments of Weather Underground - 3 mb

Script developed by  Jim McMurry - jmcmurry@mwt.net Adapted for the template by  Wim van der Kuil - Leuven-Template.eu

Clouds: Partly sunny and partly cloudy indicate the same amount of cloud coverage - about 50 percent. Partly sunny is used during the daytime, and partly cloudy is used at night when there is no sun.